Vacherie, Louisiana
Current Conditions -  °F | °C
As of 7:35 PM on Friday 19 Dec 2014 (Local Time) from K1L0 Reporting Station
Moderate Rain Moderate Rain  
Wind Chill: 50°   Ceiling: 500
Heat Index: 50°   Visibility: 7mi
Dew Point: 48°   Wind: 10mph
Humidity: 92%   Direction: 20°NNE
Pressure: 30.09"   Gusts: NA
Location:  30.01°N, 90.72°W
Report Text: K1L0 200135Z AUTO 02009KT 7SM RA OVC005 10/09 A3009 RMK AO2 P0002 T01020090
Loading
Personal Weather Stations






























Interactive Weather Map New forecast layout! Learn more

10-Day Weather Forecast

Advertisements
Track Severe Weather on mobile